sensor_id;sensor_type;location;lat;lon;timestamp;temperature;humidity
5711;DHT22;61291;52.524;13.422;2023-05-10T00:01:29;10.90;80.20
5711;DHT22;61291;52.524;13.422;2023-05-10T00:03:55;10.90;81.10
5711;DHT22;61291;52.524;13.422;2023-05-10T00:06:20;10.90;81.00
5711;DHT22;61291;52.524;13.422;2023-05-10T00:08:45;10.90;81.10
5711;DHT22;61291;52.524;13.422;2023-05-10T00:11:11;10.90;82.00
5711;DHT22;61291;52.524;13.422;2023-05-10T00:13:36;10.90;81.10
5711;DHT22;61291;52.524;13.422;2023-05-10T00:16:02;10.80;81.70
5711;DHT22;61291;52.524;13.422;2023-05-10T00:18:28;10.90;81.50
5711;DHT22;61291;52.524;13.422;2023-05-10T00:20:53;10.90;81.70
5711;DHT22;61291;52.524;13.422;2023-05-10T00:23:18;10.90;82.20
5711;DHT22;61291;52.524;13.422;2023-05-10T00:25:44;10.80;81.60
5711;DHT22;61291;52.524;13.422;2023-05-10T00:28:09;10.80;82.20
5711;DHT22;61291;52.524;13.422;2023-05-10T00:30:35;10.70;82.20
5711;DHT22;61291;52.524;13.422;2023-05-10T00:33:00;10.80;82.70
5711;DHT22;61291;52.524;13.422;2023-05-10T00:35:26;10.70;82.30
5711;DHT22;61291;52.524;13.422;2023-05-10T00:37:51;10.70;82.30
5711;DHT22;61291;52.524;13.422;2023-05-10T00:40:17;10.60;82.60
5711;DHT22;61291;52.524;13.422;2023-05-10T00:42:42;10.60;82.60
5711;DHT22;61291;52.524;13.422;2023-05-10T00:45:08;10.60;82.60
5711;DHT22;61291;52.524;13.422;2023-05-10T00:47:34;10.50;82.60
5711;DHT22;61291;52.524;13.422;2023-05-10T00:50:00;10.50;82.90
5711;DHT22;61291;52.524;13.422;2023-05-10T00:52:26;10.40;83.00
5711;DHT22;61291;52.524;13.422;2023-05-10T00:54:52;10.50;83.10
5711;DHT22;61291;52.524;13.422;2023-05-10T00:57:18;10.40;83.20
5711;DHT22;61291;52.524;13.422;2023-05-10T00:59:44;10.30;83.40
5711;DHT22;61291;52.524;13.422;2023-05-10T01:02:10;10.40;84.00
5711;DHT22;61291;52.524;13.422;2023-05-10T01:04:37;10.30;83.90
5711;DHT22;61291;52.524;13.422;2023-05-10T01:07:03;10.30;84.10
5711;DHT22;61291;52.524;13.422;2023-05-10T01:09:28;10.30;84.40
5711;DHT22;61291;52.524;13.422;2023-05-10T01:11:54;10.20;84.30
5711;DHT22;61291;52.524;13.422;2023-05-10T01:14:21;10.20;84.40
5711;DHT22;61291;52.524;13.422;2023-05-10T01:16:48;10.10;84.70
5711;DHT22;61291;52.524;13.422;2023-05-10T01:19:26;10.10;85.00
5711;DHT22;61291;52.524;13.422;2023-05-10T01:22:12;10.00;85.10
5711;DHT22;61291;52.524;13.422;2023-05-10T01:28:03;9.90;86.30
5711;DHT22;61291;52.524;13.422;2023-05-10T01:36:08;9.90;87.80
5711;DHT22;61291;52.524;13.422;2023-05-10T01:38:42;9.90;87.50
5711;DHT22;61291;52.524;13.422;2023-05-10T01:41:36;9.90;88.50
5711;DHT22;61291;52.524;13.422;2023-05-10T01:44:20;9.80;88.40
5711;DHT22;61291;52.524;13.422;2023-05-10T01:46:54;9.70;88.70
5711;DHT22;61291;52.524;13.422;2023-05-10T01:49:26;9.70;88.70
5711;DHT22;61291;52.524;13.422;2023-05-10T01:51:59;9.60;89.00
5711;DHT22;61291;52.524;13.422;2023-05-10T01:54:27;9.60;89.20
5711;DHT22;61291;52.524;13.422;2023-05-10T01:57:01;9.50;89.30
5711;DHT22;61291;52.524;13.422;2023-05-10T01:59:31;9.50;89.40
5711;DHT22;61291;52.524;13.422;2023-05-10T02:02:02;9.50;90.00
5711;DHT22;61291;52.524;13.422;2023-05-10T02:04:28;9.50;90.10
5711;DHT22;61291;52.524;13.422;2023-05-10T02:06:55;9.50;90.10
5711;DHT22;61291;52.524;13.422;2023-05-10T02:09:22;9.40;90.20
5711;DHT22;61291;52.524;13.422;2023-05-10T02:11:49;9.30;90.10
5711;DHT22;61291;52.524;13.422;2023-05-10T02:14:15;9.30;90.40
5711;DHT22;61291;52.524;13.422;2023-05-10T02:16:42;9.30;90.70
5711;DHT22;61291;52.524;13.422;2023-05-10T02:19:10;9.20;90.70
5711;DHT22;61291;52.524;13.422;2023-05-10T02:21:39;9.20;90.50
5711;DHT22;61291;52.524;13.422;2023-05-10T02:24:05;9.20;90.70
5711;DHT22;61291;52.524;13.422;2023-05-10T02:26:33;9.20;90.80
5711;DHT22;61291;52.524;13.422;2023-05-10T02:29:01;9.20;90.90
5711;DHT22;61291;52.524;13.422;2023-05-10T02:31:29;9.20;90.80
5711;DHT22;61291;52.524;13.422;2023-05-10T02:33:56;9.10;91.10
5711;DHT22;61291;52.524;13.422;2023-05-10T02:36:22;9.10;91.10
5711;DHT22;61291;52.524;13.422;2023-05-10T02:38:49;9.10;91.10
5711;DHT22;61291;52.524;13.422;2023-05-10T02:41:16;9.10;91.40
5711;DHT22;61291;52.524;13.422;2023-05-10T02:43:43;9.20;91.40
5711;DHT22;61291;52.524;13.422;2023-05-10T02:46:09;9.10;91.20
5711;DHT22;61291;52.524;13.422;2023-05-10T02:48:35;9.10;91.50
5711;DHT22;61291;52.524;13.422;2023-05-10T02:51:04;9.00;91.30
5711;DHT22;61291;52.524;13.422;2023-05-10T02:53:31;9.00;91.50
5711;DHT22;61291;52.524;13.422;2023-05-10T02:56:00;9.10;91.60
5711;DHT22;61291;52.524;13.422;2023-05-10T02:58:26;9.10;91.40
5711;DHT22;61291;52.524;13.422;2023-05-10T03:00:52;9.00;91.40
5711;DHT22;61291;52.524;13.422;2023-05-10T03:03:18;9.00;91.60
5711;DHT22;61291;52.524;13.422;2023-05-10T03:05:45;9.00;91.60
5711;DHT22;61291;52.524;13.422;2023-05-10T03:08:10;9.00;91.70
5711;DHT22;61291;52.524;13.422;2023-05-10T03:11:01;8.90;91.50
5711;DHT22;61291;52.524;13.422;2023-05-10T03:13:54;9.00;91.70
5711;DHT22;61291;52.524;13.422;2023-05-10T03:16:27;9.00;91.70
5711;DHT22;61291;52.524;13.422;2023-05-10T03:19:06;9.00;91.70
5711;DHT22;61291;52.524;13.422;2023-05-10T03:21:38;8.90;91.70
5711;DHT22;61291;52.524;13.422;2023-05-10T03:24:07;8.90;91.70
5711;DHT22;61291;52.524;13.422;2023-05-10T03:26:34;8.90;91.70
5711;DHT22;61291;52.524;13.422;2023-05-10T03:29:00;9.00;92.20
5711;DHT22;61291;52.524;13.422;2023-05-10T03:31:26;9.00;92.10
5711;DHT22;61291;52.524;13.422;2023-05-10T03:33:52;9.00;92.20
5711;DHT22;61291;52.524;13.422;2023-05-10T03:36:19;9.00;91.90
5711;DHT22;61291;52.524;13.422;2023-05-10T03:38:45;9.00;91.80
5711;DHT22;61291;52.524;13.422;2023-05-10T03:41:10;9.00;91.80
5711;DHT22;61291;52.524;13.422;2023-05-10T03:43:36;9.00;91.80
5711;DHT22;61291;52.524;13.422;2023-05-10T03:46:05;9.00;91.80
5711;DHT22;61291;52.524;13.422;2023-05-10T03:48:32;9.10;91.80
5711;DHT22;61291;52.524;13.422;2023-05-10T03:50:57;9.20;91.80
5711;DHT22;61291;52.524;13.422;2023-05-10T03:53:23;9.20;91.80
5711;DHT22;61291;52.524;13.422;2023-05-10T03:55:48;9.30;91.70
5711;DHT22;61291;52.524;13.422;2023-05-10T03:58:14;9.30;91.70
5711;DHT22;61291;52.524;13.422;2023-05-10T04:00:40;9.40;91.60
5711;DHT22;61291;52.524;13.422;2023-05-10T04:03:09;9.40;91.70
5711;DHT22;61291;52.524;13.422;2023-05-10T04:05:35;9.40;91.70
5711;DHT22;61291;52.524;13.422;2023-05-10T04:08:01;9.50;91.60
5711;DHT22;61291;52.524;13.422;2023-05-10T04:10:27;9.60;91.60
5711;DHT22;61291;52.524;13.422;2023-05-10T04:12:52;9.60;91.40
5711;DHT22;61291;52.524;13.422;2023-05-10T04:15:18;9.60;91.70
5711;DHT22;61291;52.524;13.422;2023-05-10T04:17:43;9.70;91.40
5711;DHT22;61291;52.524;13.422;2023-05-10T04:20:09;9.70;91.30
5711;DHT22;61291;52.524;13.422;2023-05-10T04:22:35;9.80;91.30
5711;DHT22;61291;52.524;13.422;2023-05-10T04:25:00;9.90;91.50
5711;DHT22;61291;52.524;13.422;2023-05-10T04:27:26;10.00;90.50
5711;DHT22;61291;52.524;13.422;2023-05-10T04:29:51;10.10;90.40
5711;DHT22;61291;52.524;13.422;2023-05-10T04:32:17;10.40;90.30
5711;DHT22;61291;52.524;13.422;2023-05-10T04:34:43;10.80;90.00
5711;DHT22;61291;52.524;13.422;2023-05-10T04:37:09;11.00;89.60
5711;DHT22;61291;52.524;13.422;2023-05-10T04:39:34;11.30;88.50
5711;DHT22;61291;52.524;13.422;2023-05-10T04:42:01;11.40;88.00
5711;DHT22;61291;52.524;13.422;2023-05-10T04:44:28;11.60;87.90
5711;DHT22;61291;52.524;13.422;2023-05-10T04:46:54;12.10;87.80
5711;DHT22;61291;52.524;13.422;2023-05-10T04:49:19;12.20;86.70
5711;DHT22;61291;52.524;13.422;2023-05-10T04:51:45;12.50;85.50
5711;DHT22;61291;52.524;13.422;2023-05-10T04:54:10;12.80;85.30
5711;DHT22;61291;52.524;13.422;2023-05-10T04:56:36;13.00;84.50
5711;DHT22;61291;52.524;13.422;2023-05-10T04:59:01;13.20;83.60
5711;DHT22;61291;52.524;13.422;2023-05-10T05:01:27;13.90;83.70
5711;DHT22;61291;52.524;13.422;2023-05-10T05:03:52;14.40;82.80
5711;DHT22;61291;52.524;13.422;2023-05-10T05:06:18;14.50;80.80
5711;DHT22;61291;52.524;13.422;2023-05-10T05:08:43;14.30;80.50
5711;DHT22;61291;52.524;13.422;2023-05-10T05:11:09;14.10;80.30
5711;DHT22;61291;52.524;13.422;2023-05-10T05:13:34;14.10;80.50
5711;DHT22;61291;52.524;13.422;2023-05-10T05:16:01;14.20;80.70
5711;DHT22;61291;52.524;13.422;2023-05-10T05:18:28;14.30;80.30
5711;DHT22;61291;52.524;13.422;2023-05-10T05:20:53;14.20;80.20
5711;DHT22;61291;52.524;13.422;2023-05-10T05:23:18;14.20;80.30
5711;DHT22;61291;52.524;13.422;2023-05-10T05:25:46;14.10;80.10
5711;DHT22;61291;52.524;13.422;2023-05-10T05:28:11;14.20;79.90
5711;DHT22;61291;52.524;13.422;2023-05-10T05:30:37;14.50;79.90
5711;DHT22;61291;52.524;13.422;2023-05-10T05:33:03;14.90;79.30
5711;DHT22;61291;52.524;13.422;2023-05-10T05:35:28;16.20;78.90
5711;DHT22;61291;52.524;13.422;2023-05-10T05:37:54;16.60;77.30
5711;DHT22;61291;52.524;13.422;2023-05-10T05:40:19;16.70;75.80
5711;DHT22;61291;52.524;13.422;2023-05-10T05:42:45;16.90;75.60
5711;DHT22;61291;52.524;13.422;2023-05-10T05:45:11;17.00;75.40
5711;DHT22;61291;52.524;13.422;2023-05-10T05:47:39;17.10;74.80
5711;DHT22;61291;52.524;13.422;2023-05-10T05:50:05;17.50;74.40
5711;DHT22;61291;52.524;13.422;2023-05-10T05:52:31;17.90;73.70
5711;DHT22;61291;52.524;13.422;2023-05-10T05:54:56;18.00;71.40
5711;DHT22;61291;52.524;13.422;2023-05-10T05:57:21;18.50;71.90
5711;DHT22;61291;52.524;13.422;2023-05-10T05:59:48;19.50;71.50
5711;DHT22;61291;52.524;13.422;2023-05-10T06:02:13;21.40;70.10
5711;DHT22;61291;52.524;13.422;2023-05-10T06:04:39;23.20;68.60
5711;DHT22;61291;52.524;13.422;2023-05-10T06:07:05;24.50;66.40
5711;DHT22;61291;52.524;13.422;2023-05-10T06:09:30;25.00;64.90
5711;DHT22;61291;52.524;13.422;2023-05-10T06:11:56;24.80;63.90
5711;DHT22;61291;52.524;13.422;2023-05-10T06:14:21;24.30;63.40
5711;DHT22;61291;52.524;13.422;2023-05-10T06:16:47;23.70;62.70
5711;DHT22;61291;52.524;13.422;2023-05-10T06:19:13;23.00;62.40
5711;DHT22;61291;52.524;13.422;2023-05-10T06:21:38;22.60;62.70
5711;DHT22;61291;52.524;13.422;2023-05-10T06:24:05;21.90;62.50
5711;DHT22;61291;52.524;13.422;2023-05-10T06:26:32;21.10;63.20
5711;DHT22;61291;52.524;13.422;2023-05-10T06:28:57;20.50;63.70
5711;DHT22;61291;52.524;13.422;2023-05-10T06:31:23;20.10;64.40
5711;DHT22;61291;52.524;13.422;2023-05-10T06:33:48;20.90;65.10
5711;DHT22;61291;52.524;13.422;2023-05-10T06:36:14;22.50;64.70
5711;DHT22;61291;52.524;13.422;2023-05-10T06:38:39;24.60;63.30
5711;DHT22;61291;52.524;13.422;2023-05-10T06:41:05;26.30;61.80
5711;DHT22;61291;52.524;13.422;2023-05-10T06:43:30;27.40;59.70
5711;DHT22;61291;52.524;13.422;2023-05-10T06:45:56;28.30;58.70
5711;DHT22;61291;52.524;13.422;2023-05-10T06:48:22;28.70;57.70
5711;DHT22;61291;52.524;13.422;2023-05-10T06:50:47;29.00;57.10
5711;DHT22;61291;52.524;13.422;2023-05-10T06:53:13;29.40;56.60
5711;DHT22;61291;52.524;13.422;2023-05-10T06:55:39;30.00;56.30
5711;DHT22;61291;52.524;13.422;2023-05-10T06:58:04;30.30;55.80
5711;DHT22;61291;52.524;13.422;2023-05-10T07:00:30;30.30;55.00
5711;DHT22;61291;52.524;13.422;2023-05-10T07:02:55;30.20;54.80
5711;DHT22;61291;52.524;13.422;2023-05-10T07:05:21;30.30;54.60
5711;DHT22;61291;52.524;13.422;2023-05-10T07:07:47;30.40;54.40
5711;DHT22;61291;52.524;13.422;2023-05-10T07:10:12;30.10;53.90
5711;DHT22;61291;52.524;13.422;2023-05-10T07:12:38;30.10;53.90
5711;DHT22;61291;52.524;13.422;2023-05-10T07:15:04;30.20;53.00
5711;DHT22;61291;52.524;13.422;2023-05-10T07:17:30;29.70;53.30
5711;DHT22;61291;52.524;13.422;2023-05-10T07:19:55;29.80;53.80
5711;DHT22;61291;52.524;13.422;2023-05-10T07:22:21;29.80;53.90
5711;DHT22;61291;52.524;13.422;2023-05-10T07:24:46;29.80;53.90
5711;DHT22;61291;52.524;13.422;2023-05-10T07:27:12;29.80;53.90
5711;DHT22;61291;52.524;13.422;2023-05-10T07:29:38;29.50;53.90
5711;DHT22;61291;52.524;13.422;2023-05-10T07:32:04;29.50;54.10
5711;DHT22;61291;52.524;13.422;2023-05-10T07:34:30;29.40;53.80
5711;DHT22;61291;52.524;13.422;2023-05-10T07:36:58;29.10;54.00
5711;DHT22;61291;52.524;13.422;2023-05-10T07:39:24;29.00;54.10
5711;DHT22;61291;52.524;13.422;2023-05-10T07:41:49;28.90;54.40
5711;DHT22;61291;52.524;13.422;2023-05-10T07:44:15;29.00;53.40
5711;DHT22;61291;52.524;13.422;2023-05-10T07:46:43;28.40;54.00
5711;DHT22;61291;52.524;13.422;2023-05-10T07:49:09;28.10;54.60
5711;DHT22;61291;52.524;13.422;2023-05-10T07:51:34;27.80;54.90
5711;DHT22;61291;52.524;13.422;2023-05-10T07:54:03;27.40;54.90
5711;DHT22;61291;52.524;13.422;2023-05-10T07:56:30;27.00;55.20
5711;DHT22;61291;52.524;13.422;2023-05-10T07:59:00;26.50;55.30
5711;DHT22;61291;52.524;13.422;2023-05-10T08:01:30;25.20;55.30
5711;DHT22;61291;52.524;13.422;2023-05-10T08:03:56;23.70;56.10
5711;DHT22;61291;52.524;13.422;2023-05-10T08:06:21;22.70;56.80
5711;DHT22;61291;52.524;13.422;2023-05-10T08:08:48;22.00;57.50
5711;DHT22;61291;52.524;13.422;2023-05-10T08:11:18;21.40;58.40
5711;DHT22;61291;52.524;13.422;2023-05-10T08:13:46;21.00;59.00
5711;DHT22;61291;52.524;13.422;2023-05-10T08:16:11;20.70;59.40
5711;DHT22;61291;52.524;13.422;2023-05-10T08:18:37;20.50;59.70
5711;DHT22;61291;52.524;13.422;2023-05-10T08:21:03;20.40;60.00
5711;DHT22;61291;52.524;13.422;2023-05-10T08:23:29;20.20;61.10
5711;DHT22;61291;52.524;13.422;2023-05-10T08:25:55;20.10;61.10
5711;DHT22;61291;52.524;13.422;2023-05-10T08:28:20;20.00;61.10
5711;DHT22;61291;52.524;13.422;2023-05-10T08:30:46;19.90;61.40
5711;DHT22;61291;52.524;13.422;2023-05-10T08:33:11;19.90;61.50
5711;DHT22;61291;52.524;13.422;2023-05-10T08:35:36;19.80;61.70
5711;DHT22;61291;52.524;13.422;2023-05-10T08:38:02;19.80;62.10
5711;DHT22;61291;52.524;13.422;2023-05-10T08:40:27;19.70;62.20
5711;DHT22;61291;52.524;13.422;2023-05-10T08:43:12;19.80;62.50
5711;DHT22;61291;52.524;13.422;2023-05-10T08:45:39;19.90;62.80
5711;DHT22;61291;52.524;13.422;2023-05-10T08:48:06;19.90;62.80
5711;DHT22;61291;52.524;13.422;2023-05-10T08:50:37;19.90;63.00
5711;DHT22;61291;52.524;13.422;2023-05-10T08:53:05;19.90;62.60
5711;DHT22;61291;52.524;13.422;2023-05-10T08:55:32;19.90;62.70
5711;DHT22;61291;52.524;13.422;2023-05-10T08:57:59;19.80;62.50
5711;DHT22;61291;52.524;13.422;2023-05-10T09:00:25;19.90;63.20
5711;DHT22;61291;52.524;13.422;2023-05-10T09:02:51;20.00;63.50
5711;DHT22;61291;52.524;13.422;2023-05-10T09:05:17;20.00;63.60
5711;DHT22;61291;52.524;13.422;2023-05-10T09:07:43;20.00;63.50
5711;DHT22;61291;52.524;13.422;2023-05-10T09:10:09;20.10;63.40
5711;DHT22;61291;52.524;13.422;2023-05-10T09:12:35;20.10;62.80
5711;DHT22;61291;52.524;13.422;2023-05-10T09:15:02;20.20;63.00
5711;DHT22;61291;52.524;13.422;2023-05-10T09:17:29;20.20;63.10
5711;DHT22;61291;52.524;13.422;2023-05-10T09:20:03;20.20;63.00
5711;DHT22;61291;52.524;13.422;2023-05-10T09:22:30;20.30;63.10
5711;DHT22;61291;52.524;13.422;2023-05-10T09:27:35;20.40;63.10
5711;DHT22;61291;52.524;13.422;2023-05-10T09:30:02;20.30;62.70
5711;DHT22;61291;52.524;13.422;2023-05-10T09:32:46;20.30;62.60
5711;DHT22;61291;52.524;13.422;2023-05-10T09:35:18;20.40;62.90
5711;DHT22;61291;52.524;13.422;2023-05-10T09:37:48;20.30;62.90
5711;DHT22;61291;52.524;13.422;2023-05-10T09:43:00;20.50;62.90
5711;DHT22;61291;52.524;13.422;2023-05-10T09:45:28;20.60;63.00
5711;DHT22;61291;52.524;13.422;2023-05-10T09:47:55;20.60;63.10
5711;DHT22;61291;52.524;13.422;2023-05-10T09:50:21;20.60;63.00
5711;DHT22;61291;52.524;13.422;2023-05-10T09:52:52;20.60;63.10
5711;DHT22;61291;52.524;13.422;2023-05-10T09:55:20;20.60;62.90
5711;DHT22;61291;52.524;13.422;2023-05-10T09:57:47;20.70;63.10
5711;DHT22;61291;52.524;13.422;2023-05-10T10:00:20;20.70;63.10
5711;DHT22;61291;52.524;13.422;2023-05-10T10:02:47;20.70;63.10
5711;DHT22;61291;52.524;13.422;2023-05-10T10:05:13;20.70;63.00
5711;DHT22;61291;52.524;13.422;2023-05-10T10:07:39;20.80;63.20
5711;DHT22;61291;52.524;13.422;2023-05-10T10:10:05;20.80;63.00
5711;DHT22;61291;52.524;13.422;2023-05-10T10:12:36;20.80;62.70
5711;DHT22;61291;52.524;13.422;2023-05-10T10:15:02;20.80;62.50
5711;DHT22;61291;52.524;13.422;2023-05-10T10:17:30;20.80;62.60
5711;DHT22;61291;52.524;13.422;2023-05-10T10:19:58;20.80;62.70
5711;DHT22;61291;52.524;13.422;2023-05-10T10:22:24;20.80;62.60
5711;DHT22;61291;52.524;13.422;2023-05-10T10:24:50;20.80;62.50
5711;DHT22;61291;52.524;13.422;2023-05-10T10:27:34;20.90;62.50
5711;DHT22;61291;52.524;13.422;2023-05-10T10:30:28;20.90;62.70
5711;DHT22;61291;52.524;13.422;2023-05-10T10:33:23;21.00;62.90
5711;DHT22;61291;52.524;13.422;2023-05-10T10:35:50;21.00;63.10
5711;DHT22;61291;52.524;13.422;2023-05-10T10:38:16;21.00;63.30
5711;DHT22;61291;52.524;13.422;2023-05-10T10:40:42;21.10;63.20
5711;DHT22;61291;52.524;13.422;2023-05-10T10:43:28;21.20;62.90
5711;DHT22;61291;52.524;13.422;2023-05-10T10:46:16;21.20;62.60
5711;DHT22;61291;52.524;13.422;2023-05-10T10:51:31;21.20;62.20
5711;DHT22;61291;52.524;13.422;2023-05-10T10:54:09;21.30;62.20
5711;DHT22;61291;52.524;13.422;2023-05-10T10:56:35;21.40;62.40
5711;DHT22;61291;52.524;13.422;2023-05-10T10:59:00;21.40;62.20
5711;DHT22;61291;52.524;13.422;2023-05-10T11:01:35;21.40;61.70
5711;DHT22;61291;52.524;13.422;2023-05-10T11:06:29;21.40;62.10
5711;DHT22;61291;52.524;13.422;2023-05-10T11:08:57;21.50;62.10
5711;DHT22;61291;52.524;13.422;2023-05-10T11:11:22;21.50;61.90
5711;DHT22;61291;52.524;13.422;2023-05-10T11:13:48;21.50;62.30
5711;DHT22;61291;52.524;13.422;2023-05-10T11:16:21;21.50;62.10
5711;DHT22;61291;52.524;13.422;2023-05-10T11:18:53;21.50;62.30
5711;DHT22;61291;52.524;13.422;2023-05-10T11:21:19;21.60;62.30
5711;DHT22;61291;52.524;13.422;2023-05-10T11:26:11;21.60;61.80
5711;DHT22;61291;52.524;13.422;2023-05-10T11:28:44;21.70;64.30
5711;DHT22;61291;52.524;13.422;2023-05-10T11:31:10;21.90;64.10
5711;DHT22;61291;52.524;13.422;2023-05-10T11:36:15;21.90;61.90
5711;DHT22;61291;52.524;13.422;2023-05-10T11:38:41;21.80;61.90
5711;DHT22;61291;52.524;13.422;2023-05-10T11:41:08;21.80;61.80
5711;DHT22;61291;52.524;13.422;2023-05-10T11:43:35;21.90;62.30
5711;DHT22;61291;52.524;13.422;2023-05-10T11:46:07;22.00;62.10
5711;DHT22;61291;52.524;13.422;2023-05-10T11:48:32;22.00;61.60
5711;DHT22;61291;52.524;13.422;2023-05-10T11:50:58;21.90;61.20
5711;DHT22;61291;52.524;13.422;2023-05-10T11:53:26;21.90;61.70
5711;DHT22;61291;52.524;13.422;2023-05-10T11:55:52;22.00;62.30
5711;DHT22;61291;52.524;13.422;2023-05-10T11:58:18;22.10;62.10
5711;DHT22;61291;52.524;13.422;2023-05-10T12:00:44;22.20;61.90
5711;DHT22;61291;52.524;13.422;2023-05-10T12:03:10;22.30;61.40
5711;DHT22;61291;52.524;13.422;2023-05-10T12:05:36;22.40;60.90
5711;DHT22;61291;52.524;13.422;2023-05-10T12:08:15;22.30;60.40
5711;DHT22;61291;52.524;13.422;2023-05-10T12:10:41;22.30;61.50
5711;DHT22;61291;52.524;13.422;2023-05-10T12:13:14;22.40;61.00
5711;DHT22;61291;52.524;13.422;2023-05-10T12:15:40;22.50;60.90
5711;DHT22;61291;52.524;13.422;2023-05-10T12:18:05;22.60;60.50
5711;DHT22;61291;52.524;13.422;2023-05-10T12:20:31;22.60;60.30
5711;DHT22;61291;52.524;13.422;2023-05-10T12:22:58;22.70;60.40
5711;DHT22;61291;52.524;13.422;2023-05-10T12:25:29;22.70;60.10
5711;DHT22;61291;52.524;13.422;2023-05-10T12:27:57;22.70;60.00
5711;DHT22;61291;52.524;13.422;2023-05-10T12:30:24;22.70;59.80
5711;DHT22;61291;52.524;13.422;2023-05-10T12:32:50;22.70;59.70
5711;DHT22;61291;52.524;13.422;2023-05-10T12:35:16;22.80;59.60
5711;DHT22;61291;52.524;13.422;2023-05-10T12:37:43;22.80;58.90
5711;DHT22;61291;52.524;13.422;2023-05-10T12:40:10;22.80;59.00
5711;DHT22;61291;52.524;13.422;2023-05-10T12:42:39;22.80;58.90
5711;DHT22;61291;52.524;13.422;2023-05-10T12:45:05;22.80;58.90
5711;DHT22;61291;52.524;13.422;2023-05-10T12:47:32;22.70;59.10
5711;DHT22;61291;52.524;13.422;2023-05-10T12:49:59;22.80;59.60
5711;DHT22;61291;52.524;13.422;2023-05-10T12:52:25;22.80;59.60
5711;DHT22;61291;52.524;13.422;2023-05-10T12:54:51;22.80;59.20
5711;DHT22;61291;52.524;13.422;2023-05-10T12:57:25;22.80;59.30
5711;DHT22;61291;52.524;13.422;2023-05-10T12:59:54;22.80;59.50
5711;DHT22;61291;52.524;13.422;2023-05-10T13:02:20;22.80;59.10
5711;DHT22;61291;52.524;13.422;2023-05-10T13:04:47;22.80;58.60
5711;DHT22;61291;52.524;13.422;2023-05-10T13:07:12;22.80;58.60
5711;DHT22;61291;52.524;13.422;2023-05-10T13:09:40;22.80;58.60
5711;DHT22;61291;52.524;13.422;2023-05-10T13:12:05;22.80;58.70
5711;DHT22;61291;52.524;13.422;2023-05-10T13:14:31;22.80;58.70
5711;DHT22;61291;52.524;13.422;2023-05-10T13:16:56;22.70;58.60
5711;DHT22;61291;52.524;13.422;2023-05-10T13:19:22;22.70;58.70
5711;DHT22;61291;52.524;13.422;2023-05-10T13:21:47;22.70;58.90
5711;DHT22;61291;52.524;13.422;2023-05-10T13:24:13;22.60;58.90
5711;DHT22;61291;52.524;13.422;2023-05-10T13:26:39;22.70;58.50
5711;DHT22;61291;52.524;13.422;2023-05-10T13:29:06;22.70;57.70
5711;DHT22;61291;52.524;13.422;2023-05-10T13:31:31;22.70;57.60
5711;DHT22;61291;52.524;13.422;2023-05-10T13:33:57;22.80;58.00
5711;DHT22;61291;52.524;13.422;2023-05-10T13:36:22;22.80;58.30
5711;DHT22;61291;52.524;13.422;2023-05-10T13:38:48;22.80;58.50
5711;DHT22;61291;52.524;13.422;2023-05-10T13:41:13;22.90;58.70
5711;DHT22;61291;52.524;13.422;2023-05-10T13:43:39;22.90;58.40
5711;DHT22;61291;52.524;13.422;2023-05-10T13:46:05;23.00;58.10
5711;DHT22;61291;52.524;13.422;2023-05-10T13:48:30;23.00;58.00
5711;DHT22;61291;52.524;13.422;2023-05-10T13:50:56;23.20;57.90
5711;DHT22;61291;52.524;13.422;2023-05-10T13:53:22;23.40;57.90
5711;DHT22;61291;52.524;13.422;2023-05-10T13:55:48;23.60;57.80
5711;DHT22;61291;52.524;13.422;2023-05-10T13:58:14;23.70;57.40
5711;DHT22;61291;52.524;13.422;2023-05-10T14:00:39;23.70;57.60
5711;DHT22;61291;52.524;13.422;2023-05-10T14:03:05;23.60;57.20
5711;DHT22;61291;52.524;13.422;2023-05-10T14:05:32;23.50;57.20
5711;DHT22;61291;52.524;13.422;2023-05-10T14:07:57;23.50;57.10
5711;DHT22;61291;52.524;13.422;2023-05-10T14:10:23;23.60;57.30
5711;DHT22;61291;52.524;13.422;2023-05-10T14:12:49;23.60;57.20
5711;DHT22;61291;52.524;13.422;2023-05-10T14:15:15;23.60;57.00
5711;DHT22;61291;52.524;13.422;2023-05-10T14:17:41;23.60;56.90
5711;DHT22;61291;52.524;13.422;2023-05-10T14:20:07;23.50;56.70
5711;DHT22;61291;52.524;13.422;2023-05-10T14:22:32;23.50;56.70
5711;DHT22;61291;52.524;13.422;2023-05-10T14:24:58;23.50;56.80
5711;DHT22;61291;52.524;13.422;2023-05-10T14:27:24;23.50;56.90
5711;DHT22;61291;52.524;13.422;2023-05-10T14:29:49;23.50;56.70
5711;DHT22;61291;52.524;13.422;2023-05-10T14:32:15;23.50;56.40
5711;DHT22;61291;52.524;13.422;2023-05-10T14:34:40;23.50;56.00
5711;DHT22;61291;52.524;13.422;2023-05-10T14:37:06;23.50;56.20
5711;DHT22;61291;52.524;13.422;2023-05-10T14:39:31;23.50;56.20
5711;DHT22;61291;52.524;13.422;2023-05-10T14:41:58;23.50;56.10
5711;DHT22;61291;52.524;13.422;2023-05-10T14:44:23;23.50;56.20
5711;DHT22;61291;52.524;13.422;2023-05-10T14:46:49;23.60;55.30
5711;DHT22;61291;52.524;13.422;2023-05-10T14:49:15;23.60;55.40
5711;DHT22;61291;52.524;13.422;2023-05-10T14:51:40;23.60;55.50
5711;DHT22;61291;52.524;13.422;2023-05-10T14:54:06;23.60;55.60
5711;DHT22;61291;52.524;13.422;2023-05-10T14:56:32;23.60;55.80
5711;DHT22;61291;52.524;13.422;2023-05-10T14:58:57;23.50;55.70
5711;DHT22;61291;52.524;13.422;2023-05-10T15:01:23;23.60;55.90
5711;DHT22;61291;52.524;13.422;2023-05-10T15:04:03;23.60;55.80
5711;DHT22;61291;52.524;13.422;2023-05-10T15:06:46;23.70;55.80
5711;DHT22;61291;52.524;13.422;2023-05-10T15:09:12;23.80;55.70
5711;DHT22;61291;52.524;13.422;2023-05-10T15:11:37;23.80;55.80
5711;DHT22;61291;52.524;13.422;2023-05-10T15:14:06;23.80;55.70
5711;DHT22;61291;52.524;13.422;2023-05-10T15:16:35;23.80;55.70
5711;DHT22;61291;52.524;13.422;2023-05-10T15:19:00;23.70;55.80
5711;DHT22;61291;52.524;13.422;2023-05-10T15:21:25;23.50;56.00
5711;DHT22;61291;52.524;13.422;2023-05-10T15:23:52;23.30;56.10
5711;DHT22;61291;52.524;13.422;2023-05-10T15:26:18;23.20;56.20
5711;DHT22;61291;52.524;13.422;2023-05-10T15:28:43;23.10;56.20
5711;DHT22;61291;52.524;13.422;2023-05-10T15:31:09;23.10;56.30
5711;DHT22;61291;52.524;13.422;2023-05-10T15:33:36;23.00;56.40
5711;DHT22;61291;52.524;13.422;2023-05-10T15:36:02;22.90;56.50
5711;DHT22;61291;52.524;13.422;2023-05-10T15:38:29;22.80;56.50
5711;DHT22;61291;52.524;13.422;2023-05-10T15:40:56;22.70;56.40
5711;DHT22;61291;52.524;13.422;2023-05-10T15:43:23;22.80;56.40
5711;DHT22;61291;52.524;13.422;2023-05-10T15:45:48;22.80;56.40
5711;DHT22;61291;52.524;13.422;2023-05-10T15:48:14;22.80;56.50
5711;DHT22;61291;52.524;13.422;2023-05-10T15:50:39;22.90;56.70
5711;DHT22;61291;52.524;13.422;2023-05-10T15:53:05;22.90;56.80
5711;DHT22;61291;52.524;13.422;2023-05-10T15:55:31;22.90;57.00
5711;DHT22;61291;52.524;13.422;2023-05-10T15:57:56;22.80;57.20